Time;durP1;ratioP1;P1;durP2;ratioP2;P2;SDS_P1;SDS_P2;PMS_P1;PMS_P2;Temp;Humidity;BMP_temperature;BMP_pressure;BME280_temperature;BME280_humidity;BME280_pressure;Samples;Min_cycle;Max_cycle;Signal;HPM_P1;HPM_P2
2021/09/28 00:00:14;;;;;;;1.77;0.30;;;18.30;66.10;;;;;;2323777;54;20975;-70
2021/09/28 00:02:40;;;;;;;2.03;0.30;;;18.30;66.10;;;;;;2343780;55;20915;-69
2021/09/28 00:05:07;;;;;;;1.77;0.40;;;18.30;66.20;;;;;;2588780;53;21397;-70
2021/09/28 00:07:33;;;;;;;0.80;0.30;;;18.30;66.20;;;;;;2584101;53;20979;-70
2021/09/28 00:10:00;;;;;;;1.08;0.30;;;18.30;66.20;;;;;;2325851;54;21789;-71
2021/09/28 00:12:26;;;;;;;2.33;0.32;;;18.20;66.00;;;;;;2345188;54;21721;-72
2021/09/28 00:14:53;;;;;;;0.65;0.30;;;18.20;66.00;;;;;;2332846;54;20970;-68
2021/09/28 00:17:19;;;;;;;1.42;0.40;;;18.20;66.00;;;;;;2562813;53;21043;-69
2021/09/28 00:19:46;;;;;;;1.83;0.40;;;18.20;66.10;;;;;;2407727;53;20999;-68
2021/09/28 00:22:12;;;;;;;1.48;0.55;;;18.10;66.00;;;;;;2325602;54;20927;-70
2021/09/28 00:24:38;;;;;;;1.23;0.40;;;18.10;66.10;;;;;;2321181;54;20924;-70
2021/09/28 00:27:05;;;;;;;1.00;0.40;;;18.10;66.20;;;;;;2326556;54;21038;-70
2021/09/28 00:29:31;;;;;;;2.10;0.40;;;18.10;66.30;;;;;;2337473;54;20927;-68
2021/09/28 00:31:59;;;;;;;0.57;0.30;;;18.00;66.30;;;;;;2323988;54;20987;-72
2021/09/28 00:34:26;;;;;;;1.00;0.20;;;18.00;66.40;;;;;;2331278;54;21038;-70
2021/09/28 00:36:53;;;;;;;1.15;0.40;;;18.00;66.40;;;;;;2324866;54;20944;-69
2021/09/28 00:39:20;;;;;;;0.77;0.30;;;18.00;66.40;;;;;;2348915;54;20979;-69
2021/09/28 00:41:46;;;;;;;1.55;0.30;;;18.00;66.40;;;;;;2339430;54;20919;-70
2021/09/28 00:44:13;;;;;;;1.08;0.30;;;17.90;66.30;;;;;;2343241;55;20943;-70
2021/09/28 00:46:39;;;;;;;1.45;0.37;;;17.90;66.30;;;;;;2383063;53;20939;-68
2021/09/28 00:49:09;;;;;;;1.48;0.40;;;17.90;66.30;;;;;;2331653;54;20991;-70
2021/09/28 00:51:35;;;;;;;2.50;0.40;;;17.90;66.30;;;;;;2576833;53;21019;-74
2021/09/28 00:54:04;;;;;;;2.85;0.55;;;17.80;66.20;;;;;;2323497;54;20962;-68
2021/09/28 00:56:30;;;;;;;1.33;0.40;;;17.80;66.30;;;;;;2336197;54;20943;-74
2021/09/28 00:59:00;;;;;;;1.48;0.37;;;17.80;66.20;;;;;;2343552;55;20931;-70
2021/09/28 01:01:26;;;;;;;2.05;0.40;;;17.70;66.10;;;;;;2343822;55;20984;-72
2021/09/28 01:03:56;;;;;;;5.97;2.17;;;17.70;66.20;;;;;;2472970;53;20947;-73
2021/09/28 01:06:22;;;;;;;7.93;3.85;;;17.60;66.10;;;;;;2564638;53;20924;-70
2021/09/28 01:08:48;;;;;;;9.45;4.20;;;17.60;66.10;;;;;;2514952;53;21841;-70
2021/09/28 01:11:15;;;;;;;15.07;7.97;;;17.50;66.00;;;;;;2320394;54;20951;-69
2021/09/28 01:13:43;;;;;;;44.30;22.10;;;17.50;66.00;;;;;;2590010;53;20992;-69
2021/09/28 01:16:10;;;;;;;41.70;22.90;;;17.30;65.90;;;;;;2325703;53;21003;-68
2021/09/28 01:18:41;;;;;;;37.28;18.60;;;17.40;66.10;;;;;;2348008;53;20926;-70
2021/09/28 01:21:10;;;;;;;20.48;11.15;;;17.30;66.00;;;;;;2331122;54;20979;-72
2021/09/28 01:23:37;;;;;;;12.48;6.53;;;17.30;66.00;;;;;;2546524;52;20925;-74
2021/09/28 01:26:03;;;;;;;9.15;4.35;;;17.30;66.00;;;;;;2342765;55;20919;-70
2021/09/28 01:28:30;;;;;;;6.65;2.90;;;17.20;65.90;;;;;;2558111;52;21927;-72
2021/09/28 01:30:58;;;;;;;5.53;2.15;;;17.20;66.10;;;;;;2332557;54;21044;-70
2021/09/28 01:33:44;;;;;;;3.58;1.50;;;17.10;66.10;;;;;;2440874;53;20995;-72
2021/09/28 01:36:11;;;;;;;3.12;1.10;;;17.00;65.80;;;;;;2336017;54;21011;-68
2021/09/28 01:38:38;;;;;;;2.17;0.90;;;17.00;66.00;;;;;;2324182;54;21054;-70
2021/09/28 01:41:05;;;;;;;2.50;0.73;;;16.90;66.00;;;;;;2418089;53;20982;-69
2021/09/28 01:43:31;;;;;;;2.58;0.75;;;16.90;66.10;;;;;;2337274;54;21737;-70
2021/09/28 01:45:59;;;;;;;2.05;0.80;;;16.80;66.10;;;;;;2449125;53;20967;-70
2021/09/28 01:48:50;;;;;;;1.50;0.50;;;16.80;66.20;;;;;;2325025;54;20955;-70
2021/09/28 01:51:17;;;;;;;2.10;0.30;;;16.70;66.30;;;;;;2338603;54;20947;-68
2021/09/28 01:53:45;;;;;;;1.17;0.30;;;16.70;66.50;;;;;;2332073;54;20995;-69
2021/09/28 01:56:19;;;;;;;0.70;0.30;;;16.60;66.50;;;;;;2486288;53;20979;-71
2021/09/28 01:58:45;;;;;;;1.92;0.35;;;16.60;66.60;;;;;;2326353;54;21448;-72
2021/09/28 02:01:12;;;;;;;1.77;0.50;;;16.60;66.70;;;;;;2344006;54;21167;-74
2021/09/28 02:03:40;;;;;;;0.82;0.30;;;16.50;66.70;;;;;;2327884;54;21043;-67
2021/09/28 02:06:11;;;;;;;0.70;0.30;;;16.50;66.80;;;;;;2336188;54;21035;-68
2021/09/28 02:08:38;;;;;;;1.10;0.40;;;16.50;66.80;;;;;;2393921;53;21015;-71
2021/09/28 02:11:04;;;;;;;1.35;0.37;;;16.50;66.80;;;;;;2343684;55;20939;-70
2021/09/28 02:13:31;;;;;;;1.90;0.50;;;16.40;66.60;;;;;;2333766;54;20959;-68
2021/09/28 02:15:58;;;;;;;1.12;0.43;;;16.40;66.70;;;;;;2334297;54;21003;-71
2021/09/28 02:18:24;;;;;;;3.37;0.70;;;16.40;66.70;;;;;;2342768;55;20956;-71
2021/09/28 02:20:50;;;;;;;1.70;0.30;;;16.30;66.70;;;;;;2343718;55;20964;-68
2021/09/28 02:23:19;;;;;;;2.37;0.40;;;16.30;66.70;;;;;;2322021;55;21007;-73
2021/09/28 02:25:49;;;;;;;1.95;0.50;;;16.30;66.70;;;;;;2330217;54;20975;-70
2021/09/28 02:28:15;;;;;;;2.78;0.50;;;16.30;66.80;;;;;;2589699;53;20983;-70
2021/09/28 02:30:41;;;;;;;1.55;0.47;;;16.30;66.80;;;;;;2338747;54;20963;-72
2021/09/28 02:33:07;;;;;;;1.40;0.30;;;16.20;66.70;;;;;;2329197;54;20936;-71
2021/09/28 02:35:34;;;;;;;1.20;0.37;;;16.20;66.80;;;;;;2448868;53;20947;-67
2021/09/28 02:38:00;;;;;;;1.08;0.40;;;16.10;66.70;;;;;;2522697;53;20936;-72
2021/09/28 02:40:27;;;;;;;1.20;0.30;;;16.10;66.70;;;;;;2343062;55;20961;-70
2021/09/28 02:42:53;;;;;;;1.42;0.43;;;16.20;66.80;;;;;;2343547;55;20952;-68
2021/09/28 02:45:20;;;;;;;2.37;0.77;;;16.10;66.80;;;;;;2377326;53;20967;-69
2021/09/28 02:47:46;;;;;;;0.62;0.22;;;16.00;66.70;;;;;;2320343;54;21064;-70
2021/09/28 02:50:13;;;;;;;0.90;0.35;;;16.00;66.80;;;;;;2333586;54;20940;-69
2021/09/28 02:52:39;;;;;;;2.17;0.40;;;15.90;66.70;;;;;;2343342;55;20931;-71
2021/09/28 02:55:06;;;;;;;2.12;0.40;;;15.90;66.70;;;;;;2339467;54;20988;-71
2021/09/28 02:57:32;;;;;;;2.12;0.40;;;15.90;66.70;;;;;;2557428;53;20947;-70
2021/09/28 02:59:59;;;;;;;0.93;0.40;;;15.90;66.80;;;;;;2336806;53;21012;-69
2021/09/28 03:02:26;;;;;;;1.50;0.40;;;15.90;66.90;;;;;;2325156;54;21051;-71
2021/09/28 03:04:53;;;;;;;2.00;0.40;;;15.80;66.90;;;;;;2342997;54;20964;-71
2021/09/28 03:07:19;;;;;;;3.05;0.40;;;15.80;67.00;;;;;;2343797;55;21052;-70
2021/09/28 03:09:45;;;;;;;1.80;0.50;;;15.80;66.90;;;;;;2344886;54;20991;-75
2021/09/28 03:12:15;;;;;;;0.88;0.30;;;15.70;66.80;;;;;;2323838;54;20944;-69
2021/09/28 03:14:42;;;;;;;0.50;0.17;;;15.70;66.70;;;;;;2331817;54;21010;-71
2021/09/28 03:17:08;;;;;;;2.80;0.50;;;15.70;66.70;;;;;;2334273;54;20947;-70
2021/09/28 03:19:35;;;;;;;0.85;0.30;;;15.60;66.60;;;;;;2344207;55;20939;-69
2021/09/28 03:22:03;;;;;;;1.65;0.40;;;15.60;66.60;;;;;;2345099;54;21055;-74
2021/09/28 03:24:30;;;;;;;2.20;0.40;;;15.50;66.60;;;;;;2337985;54;21043;-69
2021/09/28 03:26:56;;;;;;;3.00;0.40;;;15.50;66.70;;;;;;2337015;54;21914;-71
2021/09/28 03:29:23;;;;;;;1.42;0.40;;;15.50;66.70;;;;;;2332005;54;20979;-69
2021/09/28 03:31:49;;;;;;;0.95;0.30;;;15.40;66.60;;;;;;2336105;54;20979;-73
2021/09/28 03:34:15;;;;;;;1.05;0.30;;;15.40;66.60;;;;;;2344118;55;20920;-71
2021/09/28 03:36:43;;;;;;;1.40;0.40;;;15.40;66.70;;;;;;2349497;53;20959;-68
2021/09/28 03:39:10;;;;;;;2.53;0.30;;;15.40;66.80;;;;;;2588317;53;20935;-70
2021/09/28 03:41:37;;;;;;;0.93;0.35;;;15.30;66.80;;;;;;2320083;54;21973;-72
2021/09/28 03:44:04;;;;;;;1.60;0.40;;;15.30;67.20;;;;;;2337803;54;20927;-70
2021/09/28 03:46:31;;;;;;;0.95;0.25;;;15.20;66.80;;;;;;2346440;55;20944;-71
2021/09/28 03:48:57;;;;;;;0.73;0.35;;;15.20;66.90;;;;;;2342837;54;20939;-71
2021/09/28 03:51:23;;;;;;;0.80;0.30;;;15.20;66.90;;;;;;2432969;53;20955;-70
2021/09/28 03:53:51;;;;;;;2.35;0.50;;;15.20;66.80;;;;;;2329349;54;21376;-71
2021/09/28 03:56:21;;;;;;;1.95;0.40;;;15.10;66.80;;;;;;2343972;55;20943;-70
2021/09/28 03:58:47;;;;;;;1.95;0.40;;;15.10;66.80;;;;;;2343727;55;20920;-71
2021/09/28 04:01:14;;;;;;;1.05;0.40;;;15.10;66.80;;;;;;2343523;55;21844;-73
2021/09/28 04:03:41;;;;;;;1.10;0.50;;;15.00;66.80;;;;;;2343716;55;20975;-71
2021/09/28 04:06:11;;;;;;;1.55;0.50;;;15.00;66.90;;;;;;2419950;53;21483;-69
2021/09/28 04:08:38;;;;;;;0.85;0.30;;;15.00;67.00;;;;;;2328617;54;21103;-71
2021/09/28 04:11:04;;;;;;;0.68;0.20;;;14.90;66.90;;;;;;2331774;54;20906;-68
2021/09/28 04:13:33;;;;;;;1.12;0.43;;;14.90;67.10;;;;;;2562121;53;20971;-71
2021/09/28 04:16:04;;;;;;;1.10;0.35;;;14.90;67.10;;;;;;2342019;55;20951;-71
2021/09/28 04:18:33;;;;;;;1.62;0.40;;;14.90;67.10;;;;;;2315846;55;20954;-72
2021/09/28 04:20:59;;;;;;;1.55;0.40;;;14.80;67.00;;;;;;2335046;53;21071;-70
2021/09/28 04:23:26;;;;;;;0.95;0.45;;;14.80;67.00;;;;;;2323742;54;21837;-70
2021/09/28 04:25:53;;;;;;;2.92;0.90;;;14.80;67.00;;;;;;2328065;54;22086;-72
2021/09/28 04:28:19;;;;;;;1.98;0.50;;;14.80;67.00;;;;;;2564768;52;20924;-70
2021/09/28 04:30:47;;;;;;;1.55;0.47;;;14.80;66.90;;;;;;2432877;53;20963;-69
2021/09/28 04:33:14;;;;;;;0.73;0.30;;;14.70;66.80;;;;;;2324532;54;20942;-71
2021/09/28 04:35:40;;;;;;;0.45;0.30;;;14.70;66.80;;;;;;2342174;55;21060;-69
2021/09/28 04:38:06;;;;;;;2.03;0.55;;;14.60;66.80;;;;;;2325843;54;21724;-71
2021/09/28 04:40:33;;;;;;;2.97;0.50;;;14.60;66.80;;;;;;2336821;54;21034;-73
2021/09/28 04:42:59;;;;;;;1.42;0.30;;;14.60;66.80;;;;;;2337138;54;20975;-73
2021/09/28 04:45:25;;;;;;;2.30;0.50;;;14.50;66.60;;;;;;2344683;55;20939;-69
2021/09/28 04:47:52;;;;;;;1.70;0.40;;;14.50;66.70;;;;;;2318916;54;21911;-73
2021/09/28 04:50:18;;;;;;;1.50;0.40;;;14.50;66.80;;;;;;2331371;54;20943;-71
2021/09/28 04:52:46;;;;;;;1.90;0.40;;;14.50;66.90;;;;;;2553576;52;21014;-70
2021/09/28 04:55:13;;;;;;;3.12;0.55;;;14.40;67.00;;;;;;2421647;52;1372161;-72
2021/09/28 04:57:39;;;;;;;2.90;0.62;;;14.40;67.10;;;;;;2327066;54;21502;-72
2021/09/28 05:00:06;;;;;;;1.25;0.50;;;14.40;67.20;;;;;;2421775;53;20951;-73
2021/09/28 05:02:32;;;;;;;2.37;0.60;;;14.40;67.30;;;;;;2319057;54;20951;-73
2021/09/28 05:04:59;;;;;;;2.10;0.77;;;14.40;67.40;;;;;;2346910;54;21011;-71
2021/09/28 05:07:28;;;;;;;1.08;0.40;;;14.30;67.30;;;;;;2557796;52;21003;-72
2021/09/28 05:09:54;;;;;;;1.85;0.55;;;14.30;67.10;;;;;;2351516;54;20975;-73
2021/09/28 05:12:21;;;;;;;1.23;0.40;;;14.30;67.10;;;;;;2324010;54;21046;-72
2021/09/28 05:14:47;;;;;;;2.58;0.50;;;14.30;67.10;;;;;;2534316;53;20999;-73
2021/09/28 05:17:14;;;;;;;1.65;0.55;;;14.30;67.20;;;;;;2424386;53;20940;-70
2021/09/28 05:19:40;;;;;;;1.90;0.60;;;14.20;67.20;;;;;;2343068;55;20983;-69
2021/09/28 05:22:06;;;;;;;1.30;0.50;;;14.20;67.30;;;;;;2544483;53;21667;-71
2021/09/28 05:24:33;;;;;;;1.50;0.60;;;14.20;67.50;;;;;;2318669;54;21070;-71
2021/09/28 05:27:00;;;;;;;2.65;0.60;;;14.20;67.60;;;;;;2328492;54;20912;-72
2021/09/28 05:29:26;;;;;;;2.05;0.40;;;14.20;67.60;;;;;;2345018;53;20948;-70
2021/09/28 05:31:52;;;;;;;1.33;0.40;;;14.20;67.70;;;;;;2343997;55;20947;-69
2021/09/28 05:34:19;;;;;;;1.40;0.40;;;14.20;67.80;;;;;;2328402;54;20987;-72
2021/09/28 05:36:45;;;;;;;2.40;0.60;;;14.20;67.80;;;;;;2321705;54;20939;-70
2021/09/28 05:39:12;;;;;;;1.70;0.60;;;14.20;67.80;;;;;;2438443;53;21263;-69
2021/09/28 05:41:39;;;;;;;1.50;0.40;;;14.20;67.90;;;;;;2431913;53;21019;-71
2021/09/28 05:44:05;;;;;;;1.52;0.73;;;14.20;67.90;;;;;;2343652;55;21921;-67
2021/09/28 05:46:33;;;;;;;1.50;0.40;;;14.20;68.00;;;;;;2329454;54;20923;-69
2021/09/28 05:48:59;;;;;;;1.17;0.40;;;14.20;68.20;;;;;;2322118;54;21338;-71
2021/09/28 05:51:28;;;;;;;1.77;0.60;;;14.20;68.20;;;;;;2344344;55;21035;-68
2021/09/28 05:54:00;;;;;;;1.35;0.40;;;14.10;68.20;;;;;;2441078;53;21574;-74
2021/09/28 05:56:27;;;;;;;1.35;0.40;;;14.20;68.30;;;;;;2565090;53;20967;-70
2021/09/28 05:58:53;;;;;;;1.83;0.50;;;14.20;68.30;;;;;;2391361;53;20963;-71
2021/09/28 06:01:19;;;;;;;1.42;0.50;;;14.20;68.40;;;;;;2357506;53;21094;-71
2021/09/28 06:03:46;;;;;;;2.95;0.85;;;14.30;68.50;;;;;;2333938;54;21892;-71
2021/09/28 06:06:14;;;;;;;2.95;0.70;;;14.30;68.50;;;;;;2323906;53;20985;-73
2021/09/28 06:08:43;;;;;;;3.42;0.60;;;14.30;68.50;;;;;;2310760;55;20954;-70
2021/09/28 06:11:10;;;;;;;1.12;0.55;;;14.30;68.50;;;;;;2384529;53;21046;-72
2021/09/28 06:13:37;;;;;;;1.77;0.57;;;14.30;68.60;;;;;;2327178;54;20904;-72
2021/09/28 06:16:04;;;;;;;2.05;0.55;;;14.40;68.80;;;;;;2331287;54;21114;-73
2021/09/28 06:18:31;;;;;;;1.52;0.60;;;14.40;68.80;;;;;;2335532;54;21059;-72
2021/09/28 06:20:57;;;;;;;1.05;0.50;;;14.40;68.90;;;;;;2348146;53;20982;-69
2021/09/28 06:23:26;;;;;;;1.70;0.57;;;14.40;69.00;;;;;;2325019;54;20951;-72
2021/09/28 06:25:52;;;;;;;1.85;0.60;;;14.40;69.80;;;;;;2324837;53;20935;-69
2021/09/28 06:28:19;;;;;;;2.33;1.08;;;14.50;69.20;;;;;;2341339;54;20974;-68
2021/09/28 06:30:45;;;;;;;3.62;1.60;;;14.50;69.30;;;;;;2334801;54;20932;-72
2021/09/28 06:33:12;;;;;;;3.47;1.35;;;14.50;69.40;;;;;;2341748;54;21042;-71
2021/09/28 06:35:38;;;;;;;2.60;0.90;;;14.60;69.60;;;;;;2323799;54;21034;-71
2021/09/28 06:38:07;;;;;;;1.95;0.75;;;14.60;69.70;;;;;;2330681;54;20928;-69
2021/09/28 06:40:34;;;;;;;2.97;0.90;;;14.70;70.00;;;;;;2437574;52;20923;-68
2021/09/28 06:43:01;;;;;;;5.22;1.20;;;14.70;70.00;;;;;;2566606;52;20943;-72
2021/09/28 06:45:27;;;;;;;4.32;1.00;;;14.80;70.10;;;;;;2410047;53;20980;-69
2021/09/28 06:47:54;;;;;;;2.70;1.00;;;14.80;70.10;;;;;;2343463;54;21911;-71
2021/09/28 06:50:20;;;;;;;2.50;1.00;;;14.90;70.30;;;;;;2385056;53;21030;-71
2021/09/28 06:52:47;;;;;;;2.37;1.00;;;14.90;70.30;;;;;;2332192;54;21007;-72
2021/09/28 06:55:13;;;;;;;2.92;1.02;;;15.00;70.50;;;;;;2344011;54;20932;-72
2021/09/28 06:57:39;;;;;;;3.40;1.10;;;15.10;70.70;;;;;;2343470;55;21007;-71
2021/09/28 07:00:06;;;;;;;2.75;1.00;;;15.10;70.70;;;;;;2344170;55;20944;-71
2021/09/28 07:02:32;;;;;;;2.70;1.00;;;15.20;70.70;;;;;;2343740;55;21840;-73
2021/09/28 07:04:59;;;;;;;3.80;1.20;;;15.20;70.80;;;;;;2333176;54;20950;-73
2021/09/28 07:07:28;;;;;;;2.92;1.02;;;15.30;71.00;;;;;;2570949;53;20975;-70
2021/09/28 07:09:54;;;;;;;4.05;1.40;;;15.40;71.10;;;;;;2466225;52;20966;-71
2021/09/28 07:12:21;;;;;;;4.07;1.20;;;15.50;71.30;;;;;;2337718;54;20988;-72
2021/09/28 07:14:47;;;;;;;3.12;1.10;;;15.60;71.50;;;;;;2327504;54;20971;-71
2021/09/28 07:17:13;;;;;;;3.00;0.93;;;15.70;71.60;;;;;;2342610;54;20987;-69
2021/09/28 07:19:40;;;;;;;5.32;1.10;;;15.70;71.70;;;;;;2338518;54;21106;-69
2021/09/28 07:22:07;;;;;;;1.83;0.80;;;15.90;71.90;;;;;;2572431;53;20900;-69
2021/09/28 07:24:33;;;;;;;2.28;0.90;;;15.90;71.80;;;;;;2339351;54;20979;-70
2021/09/28 07:26:59;;;;;;;5.25;1.05;;;16.00;71.80;;;;;;2327446;54;20931;-71
2021/09/28 07:29:25;;;;;;;2.95;1.00;;;16.10;71.90;;;;;;2340908;54;20963;-69
2021/09/28 07:31:52;;;;;;;3.08;0.90;;;16.20;71.90;;;;;;2437393;52;20924;-70
2021/09/28 07:34:21;;;;;;;3.70;1.10;;;16.30;72.00;;;;;;2460487;53;21491;-70
2021/09/28 07:36:47;;;;;;;3.08;0.90;;;16.40;72.00;;;;;;2343765;55;21003;-69
2021/09/28 07:39:15;;;;;;;2.40;0.80;;;16.50;71.90;;;;;;2344176;55;20987;-71
2021/09/28 07:41:42;;;;;;;3.20;1.12;;;16.60;71.90;;;;;;2564801;52;20963;-69
2021/09/28 07:44:08;;;;;;;3.08;0.98;;;16.70;71.90;;;;;;2416145;53;20943;-70
2021/09/28 07:46:35;;;;;;;2.80;0.93;;;16.80;71.90;;;;;;2349547;53;21415;-70
2021/09/28 07:49:01;;;;;;;3.42;1.02;;;16.80;71.80;;;;;;2590536;53;20995;-70
2021/09/28 07:51:28;;;;;;;2.53;1.10;;;16.90;71.80;;;;;;2342188;55;20975;-72
2021/09/28 07:53:54;;;;;;;7.07;1.33;;;17.00;71.80;;;;;;2326003;54;20927;-70
2021/09/28 07:56:22;;;;;;;3.87;1.10;;;17.10;71.70;;;;;;2344159;55;20939;-70
2021/09/28 07:58:48;;;;;;;2.90;0.93;;;17.20;71.80;;;;;;2360311;53;20983;-69
2021/09/28 08:01:15;;;;;;;3.50;1.00;;;17.30;71.70;;;;;;2319999;54;20931;-69
2021/09/28 08:03:41;;;;;;;2.17;0.90;;;17.30;71.50;;;;;;2480917;53;21028;-69
2021/09/28 08:06:08;;;;;;;1.95;0.90;;;17.40;71.60;;;;;;2574978;53;21014;-69
2021/09/28 08:08:34;;;;;;;2.37;0.80;;;17.50;71.70;;;;;;2333335;54;21062;-69
2021/09/28 08:11:00;;;;;;;2.72;1.10;;;17.50;71.60;;;;;;2344019;55;21810;-70
2021/09/28 08:13:27;;;;;;;3.08;0.90;;;17.70;71.60;;;;;;2552280;53;20971;-71
2021/09/28 08:15:56;;;;;;;4.85;1.20;;;17.70;71.40;;;;;;2562282;53;20983;-71
2021/09/28 08:18:23;;;;;;;2.03;0.82;;;17.80;70.80;;;;;;2344440;55;21010;-71
2021/09/28 08:20:50;;;;;;;2.12;0.93;;;17.80;70.80;;;;;;2572268;53;21050;-69
2021/09/28 08:23:17;;;;;;;3.33;0.90;;;17.90;71.50;;;;;;2322095;54;21470;-69
2021/09/28 08:31:18;;;;;;;3.03;1.00;;;18.10;70.40;;;;;;2346832;55;20995;-69
2021/09/28 08:33:45;;;;;;;2.45;1.20;;;18.20;70.20;;;;;;2322922;54;21097;-69
2021/09/28 08:36:12;;;;;;;2.78;0.82;;;18.20;70.00;;;;;;2376504;53;21953;-70
2021/09/28 08:38:38;;;;;;;3.00;0.82;;;18.30;70.10;;;;;;2422553;53;20931;-70
2021/09/28 08:41:11;;;;;;;2.85;1.00;;;18.30;70.10;;;;;;2590950;53;20924;-69
2021/09/28 08:43:37;;;;;;;2.62;0.98;;;18.40;70.40;;;;;;2326650;54;20971;-72
2021/09/28 08:46:04;;;;;;;2.00;1.00;;;18.50;70.60;;;;;;2343905;55;20971;-70
2021/09/28 08:48:31;;;;;;;1.83;0.80;;;18.60;70.80;;;;;;2343959;55;21519;-69
2021/09/28 08:50:58;;;;;;;3.45;0.95;;;18.60;70.80;;;;;;2343534;55;20971;-70
2021/09/28 08:53:25;;;;;;;2.28;0.93;;;18.70;70.80;;;;;;2566925;53;20943;-69
2021/09/28 08:55:52;;;;;;;3.55;1.10;;;18.80;70.70;;;;;;2331041;54;20991;-69
2021/09/28 08:58:22;;;;;;;2.67;1.05;;;18.90;70.50;;;;;;2330860;54;20937;-69
2021/09/28 09:00:51;;;;;;;2.65;0.85;;;19.00;70.10;;;;;;2332268;54;21034;-73
2021/09/28 09:03:36;;;;;;;2.45;1.00;;;19.00;70.20;;;;;;2335361;53;20934;-72
2021/09/28 09:06:04;;;;;;;3.70;1.00;;;19.20;69.30;;;;;;2536863;53;21006;-72
2021/09/28 09:08:33;;;;;;;3.37;1.10;;;19.20;69.90;;;;;;2562581;52;20996;-70
2021/09/28 09:11:01;;;;;;;3.12;1.00;;;19.30;69.90;;;;;;2327389;54;21981;-69
2021/09/28 09:13:52;;;;;;;3.95;1.30;;;19.40;69.60;;;;;;2335006;53;21047;-70
2021/09/28 09:16:18;;;;;;;3.20;1.05;;;19.40;69.70;;;;;;2345143;54;21453;-69
2021/09/28 09:18:47;;;;;;;2.30;1.00;;;19.50;69.20;;;;;;2326170;54;20981;-70
2021/09/28 09:21:16;;;;;;;2.17;0.98;;;19.50;68.90;;;;;;2335940;54;20955;-70
2021/09/28 09:23:44;;;;;;;2.55;0.95;;;19.50;68.80;;;;;;2315949;54;21120;-69
2021/09/28 09:26:18;;;;;;;2.00;0.85;;;19.60;68.50;;;;;;2329926;54;20984;-71
2021/09/28 09:28:58;;;;;;;2.45;0.80;;;19.60;67.80;;;;;;2364357;53;20932;-70
2021/09/28 09:31:34;;;;;;;3.80;1.00;;;19.60;67.80;;;;;;2346182;55;20942;-71
2021/09/28 09:34:17;;;;;;;2.80;0.98;;;19.60;67.50;;;;;;2324046;54;20962;-71
2021/09/28 09:36:55;;;;;;;2.47;1.00;;;19.60;67.10;;;;;;2324194;55;21610;-70
2021/09/28 09:39:22;;;;;;;1.95;0.77;;;19.60;67.40;;;;;;2426760;53;21511;-70
2021/09/28 09:42:00;;;;;;;4.60;1.00;;;19.60;67.40;;;;;;2358457;53;21054;-69
2021/09/28 09:44:28;;;;;;;3.75;1.10;;;19.60;67.50;;;;;;2345180;55;20975;-71
2021/09/28 09:46:55;;;;;;;4.75;1.05;;;19.60;67.90;;;;;;2320225;54;21671;-70
2021/09/28 09:49:24;;;;;;;2.80;1.10;;;19.60;68.00;;;;;;2381087;54;21772;-72
2021/09/28 09:51:52;;;;;;;2.35;0.90;;;19.70;68.10;;;;;;2321996;54;20955;-69
2021/09/28 09:54:32;;;;;;;2.53;0.90;;;19.70;67.90;;;;;;2331178;54;20979;-68
2021/09/28 09:57:08;;;;;;;2.60;0.90;;;19.70;67.30;;;;;;2340826;54;21019;-71
2021/09/28 09:59:36;;;;;;;2.92;0.75;;;19.80;67.50;;;;;;2343713;55;21101;-69
2021/09/28 10:02:04;;;;;;;2.08;0.85;;;19.80;67.90;;;;;;2339086;54;21007;-68
2021/09/28 10:04:30;;;;;;;3.33;0.90;;;19.90;67.80;;;;;;2355145;53;21482;-69
2021/09/28 10:07:02;;;;;;;2.62;0.85;;;19.90;67.60;;;;;;2343824;55;21000;-70
2021/09/28 10:09:34;;;;;;;2.22;0.90;;;19.90;67.30;;;;;;2402966;53;21019;-69
2021/09/28 10:12:34;;;;;;;5.10;0.98;;;19.90;67.30;;;;;;2523954;53;21970;-70
2021/09/28 10:15:34;;;;;;;2.72;0.90;;;20.00;66.60;;;;;;2359645;53;21547;-70
2021/09/28 10:18:00;;;;;;;3.50;1.10;;;20.10;66.70;;;;;;2335300;54;21820;-69
2021/09/28 10:20:31;;;;;;;2.35;0.88;;;20.20;68.30;;;;;;2328118;54;21742;-70
2021/09/28 10:23:14;;;;;;;2.35;0.77;;;20.20;67.90;;;;;;2530358;53;21495;-68
2021/09/28 10:25:45;;;;;;;1.98;0.88;;;20.30;67.80;;;;;;2574017;53;20931;-70
2021/09/28 10:28:33;;;;;;;3.12;1.20;;;20.40;67.50;;;;;;2344633;55;20959;-72
2021/09/28 10:30:59;;;;;;;1.87;0.60;;;20.50;66.60;;;;;;2336450;53;21047;-69
2021/09/28 10:33:30;;;;;;;1.95;0.77;;;20.50;67.60;;;;;;2339118;54;21066;-73
2021/09/28 10:36:13;;;;;;;1.52;0.62;;;20.70;67.60;;;;;;2580111;53;21539;-68
2021/09/28 10:38:53;;;;;;;2.10;0.80;;;20.70;67.50;;;;;;2323736;54;21845;-69
2021/09/28 10:41:41;;;;;;;2.22;0.82;;;20.80;66.70;;;;;;2582912;52;21447;-68
2021/09/28 10:44:41;;;;;;;4.03;1.10;;;20.90;65.80;;;;;;2340016;55;21027;-72
2021/09/28 10:47:09;;;;;;;2.87;0.90;;;21.00;65.40;;;;;;2325441;54;21014;-72
2021/09/28 10:49:36;;;;;;;2.28;1.00;;;21.00;66.40;;;;;;2325566;54;20954;-70
2021/09/28 10:53:55;;;;;;;2.10;0.80;;;21.00;66.20;;;;;;2342226;54;20951;-70
2021/09/28 10:56:23;;;;;;;1.95;0.75;;;21.10;65.10;;;;;;2428431;52;21144;-69
2021/09/28 10:59:03;;;;;;;2.17;0.73;;;21.10;66.10;;;;;;2581865;52;21773;-68
2021/09/28 11:01:32;;;;;;;2.45;0.80;;;21.10;65.20;;;;;;2307143;55;20966;-68
2021/09/28 11:04:15;;;;;;;1.98;0.70;;;21.20;65.70;;;;;;2364105;54;20968;-72
2021/09/28 11:06:46;;;;;;;3.85;0.93;;;21.20;65.90;;;;;;2344281;55;21433;-71
2021/09/28 11:09:13;;;;;;;2.97;0.80;;;21.20;65.80;;;;;;2344885;55;20976;-66
2021/09/28 11:11:40;;;;;;;3.47;0.85;;;21.30;65.80;;;;;;2333268;54;21522;-71
2021/09/28 11:14:08;;;;;;;2.28;0.82;;;21.30;65.70;;;;;;2411309;54;21007;-70
2021/09/28 11:16:52;;;;;;;2.33;0.95;;;21.30;65.20;;;;;;2329230;54;20990;-67
2021/09/28 11:19:18;;;;;;;1.77;0.70;;;21.40;64.70;;;;;;2342367;54;21468;-72
2021/09/28 11:21:46;;;;;;;1.92;0.80;;;21.40;65.30;;;;;;2338171;54;20967;-70
2021/09/28 11:24:17;;;;;;;2.65;0.90;;;21.40;64.90;;;;;;2390448;53;20948;-69
2021/09/28 11:26:43;;;;;;;2.83;1.10;;;21.40;64.70;;;;;;2372255;53;21411;-70
2021/09/28 11:29:18;;;;;;;3.22;0.77;;;21.40;64.60;;;;;;2425739;53;20940;-71
2021/09/28 11:31:45;;;;;;;4.22;1.08;;;21.40;64.50;;;;;;2344288;54;21483;-69
2021/09/28 11:34:14;;;;;;;3.08;1.05;;;21.50;64.70;;;;;;2526027;53;20955;-72
2021/09/28 11:36:41;;;;;;;2.78;0.77;;;21.50;64.60;;;;;;2343877;55;21061;-69
2021/09/28 11:39:13;;;;;;;3.00;1.00;;;21.50;64.60;;;;;;2343946;55;20936;-71
2021/09/28 11:41:42;;;;;;;;;;;21.50;63.90;;;;;;2482005;53;21007;-70
2021/09/28 11:44:08;;;;;;;1.83;0.68;;;21.50;63.50;;;;;;2320770;54;20068;-70
2021/09/28 11:46:35;;;;;;;2.30;0.80;;;21.50;64.70;;;;;;2334099;55;20919;-72
2021/09/28 11:49:07;;;;;;;2.35;0.70;;;21.60;64.50;;;;;;2342523;53;21781;-68
2021/09/28 11:51:38;;;;;;;2.53;0.80;;;21.60;64.50;;;;;;2324741;55;21066;-68
2021/09/28 11:54:12;;;;;;;2.45;0.85;;;21.60;64.20;;;;;;2312920;55;20967;-68
2021/09/28 11:56:40;;;;;;;3.00;1.00;;;21.60;63.90;;;;;;2307136;55;21633;-71
2021/09/28 11:59:17;;;;;;;2.15;0.73;;;21.60;63.80;;;;;;2340843;54;21991;-70
2021/09/28 12:01:47;;;;;;;3.28;1.00;;;21.60;63.40;;;;;;2503611;52;21087;-69
2021/09/28 12:10:37;;;;;;;2.58;0.90;;;21.60;63.40;;;;;;2385975;53;20987;-69
2021/09/28 12:13:21;;;;;;;5.30;0.88;;;21.60;63.20;;;;;;2343550;55;20967;-72
2021/09/28 12:16:09;;;;;;;2.33;0.93;;;21.60;62.50;;;;;;2466888;53;21488;-70
2021/09/28 12:18:35;;;;;;;2.72;1.30;;;21.60;62.50;;;;;;2326445;54;21417;-69
2021/09/28 12:21:35;;;;;;;2.15;0.82;;;21.60;63.20;;;;;;2343693;55;20975;-70
2021/09/28 12:24:18;;;;;;;5.70;0.88;;;21.60;62.20;;;;;;2344387;55;20983;-74
2021/09/28 12:26:47;;;;;;;2.60;0.77;;;21.60;62.40;;;;;;2329863;54;21566;-70
2021/09/28 12:29:22;;;;;;;2.00;0.77;;;21.60;63.20;;;;;;2351066;54;21003;-70
2021/09/28 12:31:49;;;;;;;3.08;0.95;;;21.60;63.30;;;;;;2330632;54;20935;-71
2021/09/28 12:34:15;;;;;;;2.53;0.90;;;21.70;63.80;;;;;;2333389;54;20935;-72
2021/09/28 12:36:41;;;;;;;3.30;0.90;;;21.70;63.70;;;;;;2336851;54;20950;-69
2021/09/28 12:39:15;;;;;;;3.45;1.10;;;21.80;63.60;;;;;;2332201;54;20932;-69
2021/09/28 12:41:55;;;;;;;2.28;0.88;;;21.80;63.30;;;;;;2324483;55;21012;-69
2021/09/28 12:44:22;;;;;;;2.33;0.77;;;21.80;62.80;;;;;;2425453;53;20971;-72
2021/09/28 12:46:51;;;;;;;1.95;0.82;;;21.90;63.60;;;;;;2341613;54;20962;-69
2021/09/28 12:49:39;;;;;;;2.47;1.00;;;21.90;63.20;;;;;;2324659;54;21050;-69
2021/09/28 12:52:05;;;;;;;3.08;0.93;;;22.00;62.00;;;;;;2324361;54;21039;-69
2021/09/28 12:54:32;;;;;;;2.80;0.90;;;22.00;63.00;;;;;;2339308;54;21000;-67
2021/09/28 12:56:59;;;;;;;3.05;1.00;;;22.00;62.60;;;;;;2332037;53;21447;-69
2021/09/28 12:59:25;;;;;;;3.40;0.85;;;22.00;62.50;;;;;;2343365;54;20999;-68
2021/09/28 13:01:52;;;;;;;3.25;0.85;;;22.00;62.50;;;;;;2338755;54;20959;-72
2021/09/28 13:04:18;;;;;;;4.90;1.00;;;22.00;62.40;;;;;;2321935;54;20952;-68
2021/09/28 13:06:47;;;;;;;3.05;1.00;;;21.90;62.30;;;;;;2451875;53;21046;-69